sensor_id;sensor_type;location;lat;lon;timestamp;temperature;humidity
4643;DHT22;2334;48.710;9.622;2022-09-23T00:02:09;6.60;99.90
4643;DHT22;2334;48.710;9.622;2022-09-23T00:04:36;6.60;99.90
4643;DHT22;2334;48.710;9.622;2022-09-23T00:07:03;6.60;99.90
4643;DHT22;2334;48.710;9.622;2022-09-23T00:09:30;6.60;99.90
4643;DHT22;2334;48.710;9.622;2022-09-23T00:11:57;6.60;99.90
4643;DHT22;2334;48.710;9.622;2022-09-23T00:14:25;6.60;99.90
4643;DHT22;2334;48.710;9.622;2022-09-23T00:16:52;6.60;99.90
4643;DHT22;2334;48.710;9.622;2022-09-23T00:19:21;6.60;99.90
4643;DHT22;2334;48.710;9.622;2022-09-23T00:21:47;6.60;99.90
4643;DHT22;2334;48.710;9.622;2022-09-23T00:24:14;6.60;99.90
4643;DHT22;2334;48.710;9.622;2022-09-23T00:26:41;6.60;99.90
4643;DHT22;2334;48.710;9.622;2022-09-23T00:29:09;6.70;99.90
4643;DHT22;2334;48.710;9.622;2022-09-23T00:31:36;6.70;99.90
4643;DHT22;2334;48.710;9.622;2022-09-23T00:34:03;6.60;99.90
4643;DHT22;2334;48.710;9.622;2022-09-23T00:36:31;6.70;99.90
4643;DHT22;2334;48.710;9.622;2022-09-23T00:38:58;6.60;99.90
4643;DHT22;2334;48.710;9.622;2022-09-23T00:41:25;6.60;99.90
4643;DHT22;2334;48.710;9.622;2022-09-23T00:43:53;6.50;99.90
4643;DHT22;2334;48.710;9.622;2022-09-23T00:46:25;6.50;99.90
4643;DHT22;2334;48.710;9.622;2022-09-23T00:48:57;6.50;99.90
4643;DHT22;2334;48.710;9.622;2022-09-23T00:51:32;6.40;99.90
4643;DHT22;2334;48.710;9.622;2022-09-23T00:54:01;6.40;99.90
4643;DHT22;2334;48.710;9.622;2022-09-23T00:56:29;6.40;99.90
4643;DHT22;2334;48.710;9.622;2022-09-23T00:58:57;6.40;99.90
4643;DHT22;2334;48.710;9.622;2022-09-23T01:01:25;6.30;99.90
4643;DHT22;2334;48.710;9.622;2022-09-23T01:03:52;6.30;99.90
4643;DHT22;2334;48.710;9.622;2022-09-23T01:06:20;6.30;99.90
4643;DHT22;2334;48.710;9.622;2022-09-23T01:08:49;6.30;99.90
4643;DHT22;2334;48.710;9.622;2022-09-23T01:11:25;6.20;99.90
4643;DHT22;2334;48.710;9.622;2022-09-23T01:14:00;6.20;99.90
4643;DHT22;2334;48.710;9.622;2022-09-23T01:16:35;6.20;99.90
4643;DHT22;2334;48.710;9.622;2022-09-23T01:19:09;6.20;99.90
4643;DHT22;2334;48.710;9.622;2022-09-23T01:21:44;6.10;99.90
4643;DHT22;2334;48.710;9.622;2022-09-23T01:27:40;6.10;99.90
4643;DHT22;2334;48.710;9.622;2022-09-23T01:33:09;6.00;99.90
4643;DHT22;2334;48.710;9.622;2022-09-23T01:35:44;6.00;99.90
4643;DHT22;2334;48.710;9.622;2022-09-23T01:38:33;5.90;99.90
4643;DHT22;2334;48.710;9.622;2022-09-23T01:41:03;5.90;99.90
4643;DHT22;2334;48.710;9.622;2022-09-23T01:43:37;5.90;99.90
4643;DHT22;2334;48.710;9.622;2022-09-23T01:46:08;5.90;99.90
4643;DHT22;2334;48.710;9.622;2022-09-23T01:48:43;5.80;99.90
4643;DHT22;2334;48.710;9.622;2022-09-23T01:51:16;5.80;99.90
4643;DHT22;2334;48.710;9.622;2022-09-23T01:53:47;5.90;99.90
4643;DHT22;2334;48.710;9.622;2022-09-23T01:56:19;5.90;99.90
4643;DHT22;2334;48.710;9.622;2022-09-23T01:58:51;5.90;99.90
4643;DHT22;2334;48.710;9.622;2022-09-23T02:01:25;5.90;99.90
4643;DHT22;2334;48.710;9.622;2022-09-23T02:03:59;5.90;99.90
4643;DHT22;2334;48.710;9.622;2022-09-23T02:06:32;5.80;99.90
4643;DHT22;2334;48.710;9.622;2022-09-23T02:09:02;5.90;99.90
4643;DHT22;2334;48.710;9.622;2022-09-23T02:11:31;5.80;99.90
4643;DHT22;2334;48.710;9.622;2022-09-23T02:14:03;5.80;99.90
4643;DHT22;2334;48.710;9.622;2022-09-23T02:16:34;5.80;99.90
4643;DHT22;2334;48.710;9.622;2022-09-23T02:19:08;5.80;99.90
4643;DHT22;2334;48.710;9.622;2022-09-23T02:21:40;5.80;99.90
4643;DHT22;2334;48.710;9.622;2022-09-23T02:24:12;5.80;99.90
4643;DHT22;2334;48.710;9.622;2022-09-23T02:26:46;5.70;99.90
4643;DHT22;2334;48.710;9.622;2022-09-23T02:29:19;5.70;99.90
4643;DHT22;2334;48.710;9.622;2022-09-23T02:31:55;5.70;99.90
4643;DHT22;2334;48.710;9.622;2022-09-23T02:34:41;5.70;99.90
4643;DHT22;2334;48.710;9.622;2022-09-23T02:37:17;5.70;99.90
4643;DHT22;2334;48.710;9.622;2022-09-23T02:39:56;5.70;99.90
4643;DHT22;2334;48.710;9.622;2022-09-23T02:42:31;5.60;99.90
4643;DHT22;2334;48.710;9.622;2022-09-23T02:45:03;5.60;99.90
4643;DHT22;2334;48.710;9.622;2022-09-23T02:47:34;5.60;99.90
4643;DHT22;2334;48.710;9.622;2022-09-23T02:50:06;5.70;99.90
4643;DHT22;2334;48.710;9.622;2022-09-23T02:52:34;5.60;99.90
4643;DHT22;2334;48.710;9.622;2022-09-23T02:55:01;5.60;99.90
4643;DHT22;2334;48.710;9.622;2022-09-23T02:57:28;5.60;99.90
4643;DHT22;2334;48.710;9.622;2022-09-23T02:59:55;5.50;99.90
4643;DHT22;2334;48.710;9.622;2022-09-23T03:02:38;5.50;99.90
4643;DHT22;2334;48.710;9.622;2022-09-23T03:05:18;5.50;99.90
4643;DHT22;2334;48.710;9.622;2022-09-23T03:07:58;5.50;99.90
4643;DHT22;2334;48.710;9.622;2022-09-23T03:10:32;5.50;99.90
4643;DHT22;2334;48.710;9.622;2022-09-23T03:13:05;5.40;99.90
4643;DHT22;2334;48.710;9.622;2022-09-23T03:15:37;5.40;99.90
4643;DHT22;2334;48.710;9.622;2022-09-23T03:18:11;5.40;99.90
4643;DHT22;2334;48.710;9.622;2022-09-23T03:20:46;5.40;99.90
4643;DHT22;2334;48.710;9.622;2022-09-23T03:23:17;5.40;99.90
4643;DHT22;2334;48.710;9.622;2022-09-23T03:25:47;5.40;99.90
4643;DHT22;2334;48.710;9.622;2022-09-23T03:28:17;5.40;99.90
4643;DHT22;2334;48.710;9.622;2022-09-23T03:30:50;5.40;99.90
4643;DHT22;2334;48.710;9.622;2022-09-23T03:33:19;5.30;99.90
4643;DHT22;2334;48.710;9.622;2022-09-23T03:35:52;5.30;99.90
4643;DHT22;2334;48.710;9.622;2022-09-23T03:38:40;5.30;99.90
4643;DHT22;2334;48.710;9.622;2022-09-23T03:41:10;5.30;99.90
4643;DHT22;2334;48.710;9.622;2022-09-23T03:43:41;5.30;99.90
4643;DHT22;2334;48.710;9.622;2022-09-23T03:46:08;5.30;99.90
4643;DHT22;2334;48.710;9.622;2022-09-23T03:48:35;5.30;99.90
4643;DHT22;2334;48.710;9.622;2022-09-23T03:51:16;5.30;99.90
4643;DHT22;2334;48.710;9.622;2022-09-23T03:53:45;5.30;99.90
4643;DHT22;2334;48.710;9.622;2022-09-23T03:56:12;5.30;99.90
4643;DHT22;2334;48.710;9.622;2022-09-23T03:58:39;5.30;99.90
4643;DHT22;2334;48.710;9.622;2022-09-23T04:01:06;5.20;99.90
4643;DHT22;2334;48.710;9.622;2022-09-23T04:03:33;5.10;99.90
4643;DHT22;2334;48.710;9.622;2022-09-23T04:06:00;5.10;99.90
4643;DHT22;2334;48.710;9.622;2022-09-23T04:08:28;5.10;99.90
4643;DHT22;2334;48.710;9.622;2022-09-23T04:10:58;5.10;99.90
4643;DHT22;2334;48.710;9.622;2022-09-23T04:13:26;5.20;99.90
4643;DHT22;2334;48.710;9.622;2022-09-23T04:15:54;5.10;99.90
4643;DHT22;2334;48.710;9.622;2022-09-23T04:18:21;5.10;99.90
4643;DHT22;2334;48.710;9.622;2022-09-23T04:20:48;5.20;99.90
4643;DHT22;2334;48.710;9.622;2022-09-23T04:23:15;5.20;99.90
4643;DHT22;2334;48.710;9.622;2022-09-23T04:25:49;5.10;99.90
4643;DHT22;2334;48.710;9.622;2022-09-23T04:28:16;5.10;99.90
4643;DHT22;2334;48.710;9.622;2022-09-23T04:30:43;5.20;99.90
4643;DHT22;2334;48.710;9.622;2022-09-23T04:33:11;5.20;99.90
4643;DHT22;2334;48.710;9.622;2022-09-23T04:35:39;5.20;99.90
4643;DHT22;2334;48.710;9.622;2022-09-23T04:38:07;5.10;99.90
4643;DHT22;2334;48.710;9.622;2022-09-23T04:40:35;5.10;99.90
4643;DHT22;2334;48.710;9.622;2022-09-23T04:43:03;5.10;99.90
4643;DHT22;2334;48.710;9.622;2022-09-23T04:45:30;5.10;99.90
4643;DHT22;2334;48.710;9.622;2022-09-23T04:47:57;5.10;99.90
4643;DHT22;2334;48.710;9.622;2022-09-23T04:50:24;5.10;99.90
4643;DHT22;2334;48.710;9.622;2022-09-23T04:52:51;5.10;99.90
4643;DHT22;2334;48.710;9.622;2022-09-23T04:55:18;5.00;99.90
4643;DHT22;2334;48.710;9.622;2022-09-23T04:57:45;5.00;99.90
4643;DHT22;2334;48.710;9.622;2022-09-23T05:00:15;5.00;99.90
4643;DHT22;2334;48.710;9.622;2022-09-23T05:02:42;5.00;99.90
4643;DHT22;2334;48.710;9.622;2022-09-23T05:05:10;5.00;99.90
4643;DHT22;2334;48.710;9.622;2022-09-23T05:07:37;5.00;99.90
4643;DHT22;2334;48.710;9.622;2022-09-23T05:10:04;5.00;99.90
4643;DHT22;2334;48.710;9.622;2022-09-23T05:12:31;5.00;99.90
4643;DHT22;2334;48.710;9.622;2022-09-23T05:14:58;5.00;99.90
4643;DHT22;2334;48.710;9.622;2022-09-23T05:17:26;4.90;99.90
4643;DHT22;2334;48.710;9.622;2022-09-23T05:19:56;4.90;99.90
4643;DHT22;2334;48.710;9.622;2022-09-23T05:22:23;4.90;99.90
4643;DHT22;2334;48.710;9.622;2022-09-23T05:24:51;5.00;99.90
4643;DHT22;2334;48.710;9.622;2022-09-23T05:27:18;4.90;99.90
4643;DHT22;2334;48.710;9.622;2022-09-23T05:29:45;4.90;99.90
4643;DHT22;2334;48.710;9.622;2022-09-23T05:32:12;5.00;99.90
4643;DHT22;2334;48.710;9.622;2022-09-23T05:34:41;5.10;99.90
4643;DHT22;2334;48.710;9.622;2022-09-23T05:37:08;5.10;99.90
4643;DHT22;2334;48.710;9.622;2022-09-23T05:39:34;5.20;99.90
4643;DHT22;2334;48.710;9.622;2022-09-23T05:42:02;5.30;99.90
4643;DHT22;2334;48.710;9.622;2022-09-23T05:44:29;5.30;99.90
4643;DHT22;2334;48.710;9.622;2022-09-23T05:46:56;5.40;99.90
4643;DHT22;2334;48.710;9.622;2022-09-23T05:49:23;5.40;99.90
4643;DHT22;2334;48.710;9.622;2022-09-23T05:51:51;5.40;99.90
4643;DHT22;2334;48.710;9.622;2022-09-23T05:54:18;5.50;99.90
4643;DHT22;2334;48.710;9.622;2022-09-23T05:56:45;5.50;99.90
4643;DHT22;2334;48.710;9.622;2022-09-23T05:59:12;5.50;99.90
4643;DHT22;2334;48.710;9.622;2022-09-23T06:01:39;5.50;99.90
4643;DHT22;2334;48.710;9.622;2022-09-23T06:04:06;5.60;99.90
4643;DHT22;2334;48.710;9.622;2022-09-23T06:06:35;5.70;99.90
4643;DHT22;2334;48.710;9.622;2022-09-23T06:09:04;5.80;99.90
4643;DHT22;2334;48.710;9.622;2022-09-23T06:11:33;5.80;99.90
4643;DHT22;2334;48.710;9.622;2022-09-23T06:14:01;5.80;99.90
4643;DHT22;2334;48.710;9.622;2022-09-23T06:16:29;5.80;99.90
4643;DHT22;2334;48.710;9.622;2022-09-23T06:18:56;5.80;99.90
4643;DHT22;2334;48.710;9.622;2022-09-23T06:21:25;5.80;99.90
4643;DHT22;2334;48.710;9.622;2022-09-23T06:23:51;5.90;99.90
4643;DHT22;2334;48.710;9.622;2022-09-23T06:26:20;5.90;99.90
4643;DHT22;2334;48.710;9.622;2022-09-23T06:28:47;6.00;99.90
4643;DHT22;2334;48.710;9.622;2022-09-23T06:31:15;6.00;99.90
4643;DHT22;2334;48.710;9.622;2022-09-23T06:33:43;5.90;99.90
4643;DHT22;2334;48.710;9.622;2022-09-23T06:36:11;6.10;99.90
4643;DHT22;2334;48.710;9.622;2022-09-23T06:38:39;6.10;99.90
4643;DHT22;2334;48.710;9.622;2022-09-23T06:41:06;6.20;99.90
4643;DHT22;2334;48.710;9.622;2022-09-23T06:43:35;6.30;99.90
4643;DHT22;2334;48.710;9.622;2022-09-23T06:46:03;6.40;99.90
4643;DHT22;2334;48.710;9.622;2022-09-23T06:48:31;6.60;99.90
4643;DHT22;2334;48.710;9.622;2022-09-23T06:51:01;6.60;99.90
4643;DHT22;2334;48.710;9.622;2022-09-23T06:53:29;6.80;99.90
4643;DHT22;2334;48.710;9.622;2022-09-23T06:55:58;7.00;99.90
4643;DHT22;2334;48.710;9.622;2022-09-23T06:58:27;7.10;99.90
4643;DHT22;2334;48.710;9.622;2022-09-23T07:00:59;7.30;99.90
4643;DHT22;2334;48.710;9.622;2022-09-23T07:03:27;7.50;99.90
4643;DHT22;2334;48.710;9.622;2022-09-23T07:05:54;7.60;99.90
4643;DHT22;2334;48.710;9.622;2022-09-23T07:08:21;7.90;99.90
4643;DHT22;2334;48.710;9.622;2022-09-23T07:10:50;8.10;99.90
4643;DHT22;2334;48.710;9.622;2022-09-23T07:13:18;8.30;99.90
4643;DHT22;2334;48.710;9.622;2022-09-23T07:15:48;8.50;99.90
4643;DHT22;2334;48.710;9.622;2022-09-23T07:18:17;8.80;99.90
4643;DHT22;2334;48.710;9.622;2022-09-23T07:20:44;8.80;99.90
4643;DHT22;2334;48.710;9.622;2022-09-23T07:23:15;9.00;99.90
4643;DHT22;2334;48.710;9.622;2022-09-23T07:25:43;9.10;99.90
4643;DHT22;2334;48.710;9.622;2022-09-23T07:28:11;9.40;99.90
4643;DHT22;2334;48.710;9.622;2022-09-23T07:30:39;9.60;99.90
4643;DHT22;2334;48.710;9.622;2022-09-23T07:33:06;9.70;99.90
4643;DHT22;2334;48.710;9.622;2022-09-23T07:35:37;9.70;99.90
4643;DHT22;2334;48.710;9.622;2022-09-23T07:38:05;9.70;99.90
4643;DHT22;2334;48.710;9.622;2022-09-23T07:40:32;9.70;99.90
4643;DHT22;2334;48.710;9.622;2022-09-23T07:42:59;9.80;99.90
4643;DHT22;2334;48.710;9.622;2022-09-23T07:45:26;10.00;99.90
4643;DHT22;2334;48.710;9.622;2022-09-23T07:47:54;10.20;99.90
4643;DHT22;2334;48.710;9.622;2022-09-23T07:50:21;10.30;99.90
4643;DHT22;2334;48.710;9.622;2022-09-23T07:52:49;10.40;99.90
4643;DHT22;2334;48.710;9.622;2022-09-23T07:55:17;10.60;99.90
4643;DHT22;2334;48.710;9.622;2022-09-23T07:57:44;10.90;99.90
4643;DHT22;2334;48.710;9.622;2022-09-23T08:00:12;11.00;99.90
4643;DHT22;2334;48.710;9.622;2022-09-23T08:02:39;11.10;99.90
4643;DHT22;2334;48.710;9.622;2022-09-23T08:05:06;11.20;99.90
4643;DHT22;2334;48.710;9.622;2022-09-23T08:07:34;11.50;99.90
4643;DHT22;2334;48.710;9.622;2022-09-23T08:10:03;11.80;99.90
4643;DHT22;2334;48.710;9.622;2022-09-23T08:12:32;12.00;99.90
4643;DHT22;2334;48.710;9.622;2022-09-23T08:14:58;12.40;99.90
4643;DHT22;2334;48.710;9.622;2022-09-23T08:17:25;12.60;99.90
4643;DHT22;2334;48.710;9.622;2022-09-23T08:19:52;13.00;99.90
4643;DHT22;2334;48.710;9.622;2022-09-23T08:22:19;13.20;99.90
4643;DHT22;2334;48.710;9.622;2022-09-23T08:24:46;13.30;99.90
4643;DHT22;2334;48.710;9.622;2022-09-23T08:27:14;13.40;99.90
4643;DHT22;2334;48.710;9.622;2022-09-23T08:29:41;13.70;99.90
4643;DHT22;2334;48.710;9.622;2022-09-23T08:32:08;14.00;99.90
4643;DHT22;2334;48.710;9.622;2022-09-23T08:34:34;14.10;99.90
4643;DHT22;2334;48.710;9.622;2022-09-23T08:37:01;14.10;99.90
4643;DHT22;2334;48.710;9.622;2022-09-23T08:39:28;14.10;99.90
4643;DHT22;2334;48.710;9.622;2022-09-23T08:42:04;14.20;99.90
4643;DHT22;2334;48.710;9.622;2022-09-23T08:44:42;14.30;99.90
4643;DHT22;2334;48.710;9.622;2022-09-23T08:47:16;14.30;99.90
4643;DHT22;2334;48.710;9.622;2022-09-23T08:49:54;14.40;99.90
4643;DHT22;2334;48.710;9.622;2022-09-23T08:52:28;14.50;99.90
4643;DHT22;2334;48.710;9.622;2022-09-23T08:54:57;14.50;99.90
4643;DHT22;2334;48.710;9.622;2022-09-23T08:57:33;14.70;99.90
4643;DHT22;2334;48.710;9.622;2022-09-23T09:00:11;14.60;99.90
4643;DHT22;2334;48.710;9.622;2022-09-23T09:02:39;14.70;99.90
4643;DHT22;2334;48.710;9.622;2022-09-23T09:05:07;14.80;99.90
4643;DHT22;2334;48.710;9.622;2022-09-23T09:07:37;14.90;99.90
4643;DHT22;2334;48.710;9.622;2022-09-23T09:10:13;15.10;99.90
4643;DHT22;2334;48.710;9.622;2022-09-23T09:12:43;15.20;99.90
4643;DHT22;2334;48.710;9.622;2022-09-23T09:15:14;15.20;99.90
4643;DHT22;2334;48.710;9.622;2022-09-23T09:17:52;15.50;99.90
4643;DHT22;2334;48.710;9.622;2022-09-23T09:20:31;15.70;99.90
4643;DHT22;2334;48.710;9.622;2022-09-23T09:23:11;15.70;99.90
4643;DHT22;2334;48.710;9.622;2022-09-23T09:25:43;16.00;99.90
4643;DHT22;2334;48.710;9.622;2022-09-23T09:28:14;16.10;99.90
4643;DHT22;2334;48.710;9.622;2022-09-23T09:30:46;16.20;99.90
4643;DHT22;2334;48.710;9.622;2022-09-23T09:33:16;16.30;99.90
4643;DHT22;2334;48.710;9.622;2022-09-23T09:36:03;16.40;99.90
4643;DHT22;2334;48.710;9.622;2022-09-23T09:38:33;16.50;99.90
4643;DHT22;2334;48.710;9.622;2022-09-23T09:41:10;16.50;99.90
4643;DHT22;2334;48.710;9.622;2022-09-23T09:43:39;16.50;99.90
4643;DHT22;2334;48.710;9.622;2022-09-23T09:46:21;16.70;99.90
4643;DHT22;2334;48.710;9.622;2022-09-23T09:48:52;16.70;99.90
4643;DHT22;2334;48.710;9.622;2022-09-23T09:51:21;16.60;99.90
4643;DHT22;2334;48.710;9.622;2022-09-23T09:53:49;16.90;99.90
4643;DHT22;2334;48.710;9.622;2022-09-23T09:56:17;17.20;99.90
4643;DHT22;2334;48.710;9.622;2022-09-23T09:58:48;17.20;99.90
4643;DHT22;2334;48.710;9.622;2022-09-23T10:01:22;17.50;99.90
4643;DHT22;2334;48.710;9.622;2022-09-23T10:03:51;17.70;99.90
4643;DHT22;2334;48.710;9.622;2022-09-23T10:06:21;17.80;99.90
4643;DHT22;2334;48.710;9.622;2022-09-23T10:09:04;18.10;99.90
4643;DHT22;2334;48.710;9.622;2022-09-23T10:11:34;18.00;99.90
4643;DHT22;2334;48.710;9.622;2022-09-23T10:14:09;17.90;99.90
4643;DHT22;2334;48.710;9.622;2022-09-23T10:16:39;18.00;99.90
4643;DHT22;2334;48.710;9.622;2022-09-23T10:19:22;18.20;99.90
4643;DHT22;2334;48.710;9.622;2022-09-23T10:21:51;17.90;99.90
4643;DHT22;2334;48.710;9.622;2022-09-23T10:24:24;17.90;99.90
4643;DHT22;2334;48.710;9.622;2022-09-23T10:26:56;18.00;99.90
4643;DHT22;2334;48.710;9.622;2022-09-23T10:29:28;18.00;99.90
4643;DHT22;2334;48.710;9.622;2022-09-23T10:32:22;18.10;99.90
4643;DHT22;2334;48.710;9.622;2022-09-23T10:34:53;18.40;99.90
4643;DHT22;2334;48.710;9.622;2022-09-23T10:37:30;18.90;99.90
4643;DHT22;2334;48.710;9.622;2022-09-23T10:39:58;19.20;99.90
4643;DHT22;2334;48.710;9.622;2022-09-23T10:42:51;19.10;99.90
4643;DHT22;2334;48.710;9.622;2022-09-23T10:45:39;18.80;99.90
4643;DHT22;2334;48.710;9.622;2022-09-23T10:48:31;19.10;99.90
4643;DHT22;2334;48.710;9.622;2022-09-23T10:51:10;19.50;99.90
4643;DHT22;2334;48.710;9.622;2022-09-23T10:53:45;19.40;99.90
4643;DHT22;2334;48.710;9.622;2022-09-23T10:56:20;19.20;99.90
4643;DHT22;2334;48.710;9.622;2022-09-23T10:59:30;18.70;99.90
4643;DHT22;2334;48.710;9.622;2022-09-23T11:02:10;18.80;99.90
4643;DHT22;2334;48.710;9.622;2022-09-23T11:04:56;19.20;99.90
4643;DHT22;2334;48.710;9.622;2022-09-23T11:07:30;19.20;99.90
4643;DHT22;2334;48.710;9.622;2022-09-23T11:13:11;19.50;99.90
4643;DHT22;2334;48.710;9.622;2022-09-23T11:15:49;19.70;99.90
4643;DHT22;2334;48.710;9.622;2022-09-23T11:18:56;19.70;99.90
4643;DHT22;2334;48.710;9.622;2022-09-23T11:21:43;20.30;99.90
4643;DHT22;2334;48.710;9.622;2022-09-23T11:24:32;20.50;99.90
4643;DHT22;2334;48.710;9.622;2022-09-23T11:27:09;20.40;99.90
4643;DHT22;2334;48.710;9.622;2022-09-23T11:29:55;20.50;99.90
4643;DHT22;2334;48.710;9.622;2022-09-23T11:35:33;20.40;99.90
4643;DHT22;2334;48.710;9.622;2022-09-23T11:38:07;20.40;99.90
4643;DHT22;2334;48.710;9.622;2022-09-23T11:40:37;20.20;99.90
4643;DHT22;2334;48.710;9.622;2022-09-23T11:43:17;20.00;99.90
4643;DHT22;2334;48.710;9.622;2022-09-23T11:45:50;20.10;99.90
4643;DHT22;2334;48.710;9.622;2022-09-23T11:48:22;20.40;99.90
4643;DHT22;2334;48.710;9.622;2022-09-23T11:50:55;20.10;99.90
4643;DHT22;2334;48.710;9.622;2022-09-23T11:53:35;20.20;99.90
4643;DHT22;2334;48.710;9.622;2022-09-23T11:56:06;20.10;99.90
4643;DHT22;2334;48.710;9.622;2022-09-23T11:58:37;20.20;99.90
4643;DHT22;2334;48.710;9.622;2022-09-23T12:01:10;20.00;99.90
4643;DHT22;2334;48.710;9.622;2022-09-23T12:03:45;20.20;99.90
4643;DHT22;2334;48.710;9.622;2022-09-23T12:06:18;20.50;99.90
4643;DHT22;2334;48.710;9.622;2022-09-23T12:08:49;20.50;99.90
4643;DHT22;2334;48.710;9.622;2022-09-23T12:11:25;20.40;99.90
4643;DHT22;2334;48.710;9.622;2022-09-23T12:13:59;20.50;99.90
4643;DHT22;2334;48.710;9.622;2022-09-23T12:16:48;20.70;99.90
4643;DHT22;2334;48.710;9.622;2022-09-23T12:19:34;21.00;99.90
4643;DHT22;2334;48.710;9.622;2022-09-23T12:22:17;20.80;99.90
4643;DHT22;2334;48.710;9.622;2022-09-23T12:24:54;20.40;99.90
4643;DHT22;2334;48.710;9.622;2022-09-23T12:27:30;20.30;99.90
4643;DHT22;2334;48.710;9.622;2022-09-23T12:30:01;20.50;99.90
4643;DHT22;2334;48.710;9.622;2022-09-23T12:32:29;20.30;99.90
4643;DHT22;2334;48.710;9.622;2022-09-23T12:34:56;20.20;99.90
4643;DHT22;2334;48.710;9.622;2022-09-23T12:37:26;20.20;99.90
4643;DHT22;2334;48.710;9.622;2022-09-23T12:39:58;20.00;99.90
4643;DHT22;2334;48.710;9.622;2022-09-23T12:42:30;20.10;99.90
4643;DHT22;2334;48.710;9.622;2022-09-23T12:45:31;20.20;99.90
4643;DHT22;2334;48.710;9.622;2022-09-23T12:48:00;20.30;99.90
4643;DHT22;2334;48.710;9.622;2022-09-23T12:50:48;20.40;99.90
4643;DHT22;2334;48.710;9.622;2022-09-23T12:53:53;20.80;99.90
4643;DHT22;2334;48.710;9.622;2022-09-23T12:56:24;20.80;99.90
4643;DHT22;2334;48.710;9.622;2022-09-23T12:59:13;21.00;99.90
4643;DHT22;2334;48.710;9.622;2022-09-23T13:01:45;20.80;99.90
4643;DHT22;2334;48.710;9.622;2022-09-23T13:04:30;20.80;99.90
4643;DHT22;2334;48.710;9.622;2022-09-23T13:07:21;20.90;99.90
4643;DHT22;2334;48.710;9.622;2022-09-23T13:09:51;21.00;99.90
4643;DHT22;2334;48.710;9.622;2022-09-23T13:12:24;21.10;99.90
4643;DHT22;2334;48.710;9.622;2022-09-23T13:14:55;20.90;99.90
4643;DHT22;2334;48.710;9.622;2022-09-23T13:17:29;20.70;99.90
4643;DHT22;2334;48.710;9.622;2022-09-23T13:19:59;20.50;99.90
4643;DHT22;2334;48.710;9.622;2022-09-23T13:22:41;20.50;99.90
4643;DHT22;2334;48.710;9.622;2022-09-23T13:25:27;20.80;99.90
4643;DHT22;2334;48.710;9.622;2022-09-23T13:28:01;21.00;99.90
4643;DHT22;2334;48.710;9.622;2022-09-23T13:30:29;20.80;99.90
4643;DHT22;2334;48.710;9.622;2022-09-23T13:33:10;20.80;99.90
4643;DHT22;2334;48.710;9.622;2022-09-23T13:35:42;20.80;99.90
4643;DHT22;2334;48.710;9.622;2022-09-23T13:38:18;21.00;99.90
4643;DHT22;2334;48.710;9.622;2022-09-23T13:40:49;21.10;99.90
4643;DHT22;2334;48.710;9.622;2022-09-23T13:43:22;21.30;99.90
4643;DHT22;2334;48.710;9.622;2022-09-23T13:45:49;21.20;99.90
4643;DHT22;2334;48.710;9.622;2022-09-23T13:48:18;20.90;99.90
4643;DHT22;2334;48.710;9.622;2022-09-23T13:50:48;20.80;99.90
4643;DHT22;2334;48.710;9.622;2022-09-23T13:53:21;20.60;99.90
4643;DHT22;2334;48.710;9.622;2022-09-23T13:55:59;20.50;99.90
4643;DHT22;2334;48.710;9.622;2022-09-23T13:58:29;20.40;99.90
4643;DHT22;2334;48.710;9.622;2022-09-23T14:00:57;20.50;99.90
4643;DHT22;2334;48.710;9.622;2022-09-23T14:03:27;20.30;99.90
4643;DHT22;2334;48.710;9.622;2022-09-23T14:05:57;20.20;99.90
4643;DHT22;2334;48.710;9.622;2022-09-23T14:08:25;20.20;99.90
4643;DHT22;2334;48.710;9.622;2022-09-23T14:10:53;20.10;99.90
4643;DHT22;2334;48.710;9.622;2022-09-23T14:13:21;20.10;99.90
4643;DHT22;2334;48.710;9.622;2022-09-23T14:15:52;20.10;99.90
4643;DHT22;2334;48.710;9.622;2022-09-23T14:18:30;20.20;99.90
4643;DHT22;2334;48.710;9.622;2022-09-23T14:20:58;20.10;99.90
4643;DHT22;2334;48.710;9.622;2022-09-23T14:23:25;20.10;99.90
4643;DHT22;2334;48.710;9.622;2022-09-23T14:25:53;20.10;99.90
4643;DHT22;2334;48.710;9.622;2022-09-23T14:28:22;20.00;99.90
4643;DHT22;2334;48.710;9.622;2022-09-23T14:30:52;20.00;99.90
4643;DHT22;2334;48.710;9.622;2022-09-23T14:33:24;19.90;99.90
4643;DHT22;2334;48.710;9.622;2022-09-23T14:35:53;19.90;99.90
4643;DHT22;2334;48.710;9.622;2022-09-23T14:38:25;20.00;99.90
4643;DHT22;2334;48.710;9.622;2022-09-23T14:41:15;19.90;99.90
4643;DHT22;2334;48.710;9.622;2022-09-23T14:43:48;19.90;99.90
4643;DHT22;2334;48.710;9.622;2022-09-23T14:46:19;20.10;99.90
4643;DHT22;2334;48.710;9.622;2022-09-23T14:49:04;20.10;99.90
4643;DHT22;2334;48.710;9.622;2022-09-23T14:51:36;20.20;99.90
4643;DHT22;2334;48.710;9.622;2022-09-23T14:57:23;20.00;99.90
4643;DHT22;2334;48.710;9.622;2022-09-23T14:59:52;19.80;99.90
4643;DHT22;2334;48.710;9.622;2022-09-23T15:02:33;19.90;99.90
4643;DHT22;2334;48.710;9.622;2022-09-23T15:05:18;19.90;99.90
4643;DHT22;2334;48.710;9.622;2022-09-23T15:07:47;19.90;99.90
4643;DHT22;2334;48.710;9.622;2022-09-23T15:10:20;19.90;99.90
4643;DHT22;2334;48.710;9.622;2022-09-23T15:12:50;19.90;99.90
4643;DHT22;2334;48.710;9.622;2022-09-23T15:15:18;20.20;99.90
4643;DHT22;2334;48.710;9.622;2022-09-23T15:17:46;20.30;99.90
4643;DHT22;2334;48.710;9.622;2022-09-23T15:20:21;20.30;99.90
4643;DHT22;2334;48.710;9.622;2022-09-23T15:22:50;20.40;99.90
4643;DHT22;2334;48.710;9.622;2022-09-23T15:25:20;20.50;99.90
4643;DHT22;2334;48.710;9.622;2022-09-23T15:27:57;20.90;99.90
4643;DHT22;2334;48.710;9.622;2022-09-23T15:30:25;21.10;99.90
4643;DHT22;2334;48.710;9.622;2022-09-23T15:32:53;21.20;99.90
4643;DHT22;2334;48.710;9.622;2022-09-23T15:35:22;21.20;99.90
4643;DHT22;2334;48.710;9.622;2022-09-23T15:37:51;21.10;99.90
4643;DHT22;2334;48.710;9.622;2022-09-23T15:40:23;20.90;99.90
4643;DHT22;2334;48.710;9.622;2022-09-23T15:42:53;20.70;99.90
4643;DHT22;2334;48.710;9.622;2022-09-23T15:45:28;20.50;99.90
4643;DHT22;2334;48.710;9.622;2022-09-23T15:47:58;20.40;99.90
4643;DHT22;2334;48.710;9.622;2022-09-23T15:50:26;20.20;99.90
4643;DHT22;2334;48.710;9.622;2022-09-23T15:52:56;20.10;99.90
4643;DHT22;2334;48.710;9.622;2022-09-23T15:55:24;20.00;99.90
4643;DHT22;2334;48.710;9.622;2022-09-23T15:57:51;19.80;99.90
4643;DHT22;2334;48.710;9.622;2022-09-23T16:00:18;19.80;99.90
4643;DHT22;2334;48.710;9.622;2022-09-23T16:02:46;19.70;99.90
4643;DHT22;2334;48.710;9.622;2022-09-23T16:05:20;19.50;99.90
4643;DHT22;2334;48.710;9.622;2022-09-23T16:07:48;19.40;99.90
4643;DHT22;2334;48.710;9.622;2022-09-23T16:10:17;19.20;99.90
4643;DHT22;2334;48.710;9.622;2022-09-23T16:12:45;19.10;99.90
4643;DHT22;2334;48.710;9.622;2022-09-23T16:15:15;19.10;99.90
4643;DHT22;2334;48.710;9.622;2022-09-23T16:17:43;19.10;99.90
4643;DHT22;2334;48.710;9.622;2022-09-23T16:20:10;19.00;99.90
4643;DHT22;2334;48.710;9.622;2022-09-23T16:22:39;19.00;99.90
4643;DHT22;2334;48.710;9.622;2022-09-23T16:25:09;18.80;99.90
4643;DHT22;2334;48.710;9.622;2022-09-23T16:27:37;18.60;99.90
4643;DHT22;2334;48.710;9.622;2022-09-23T16:30:07;18.60;99.90
4643;DHT22;2334;48.710;9.622;2022-09-23T16:32:34;18.40;99.90
4643;DHT22;2334;48.710;9.622;2022-09-23T16:35:01;18.20;99.90
4643;DHT22;2334;48.710;9.622;2022-09-23T16:37:28;18.10;99.90
4643;DHT22;2334;48.710;9.622;2022-09-23T16:39:56;17.90;99.90
4643;DHT22;2334;48.710;9.622;2022-09-23T16:42:24;17.70;99.90
4643;DHT22;2334;48.710;9.622;2022-09-23T16:44:50;17.60;99.90
4643;DHT22;2334;48.710;9.622;2022-09-23T16:47:17;17.50;99.90
4643;DHT22;2334;48.710;9.622;2022-09-23T16:49:44;17.40;99.90
4643;DHT22;2334;48.710;9.622;2022-09-23T16:52:11;17.20;99.90
4643;DHT22;2334;48.710;9.622;2022-09-23T16:54:39;17.00;99.90